KBOS/BOS METAR and TAF weather

Enter ICAO airport designator
Station Type Date Time Source
KBOS METAR 2022/11/30 17:54 UTC NOAA

KBOS 301754Z 16016G24KT 10SM BKN020 OVC027 13/11 A2987 RMK AO2 PRESFR SLP114 60000 T01330106 10133 20072 58086


Station Type Date Time Source
KBOS Decoded METAR 2022/11/30 17:54 UTC NOAA

BOSTON LOGAN INTERNATIONAL, MA, United States (KBOS) 42-22N 071-01W 54M
Nov 30, 2022 - 12:54 PM EST / 2022.11.30 1754 UTC
Wind: from the SSE (160 degrees) at 18 MPH (16 KT) gusting to 28 MPH (24 KT):0
Visibility: 10 mile(s):0
Sky conditions: overcast
Temperature: 55.9 F (13.3 C)
Dew Point: 51.1 F (10.6 C)
Relative Humidity: 83%
Pressure (altimeter): 29.87 in. Hg (1011 hPa)
Pressure tendency: falling rapidly - 0.25 inches (8.6 hPa) lower than three hours ago
ob: KBOS 301754Z 16016G24KT 10SM BKN020 OVC027 13/11 A2987 RMK AO2 PRESFR SLP114 60000 T01330106 10133 20072 58086
cycle: 18

Station Type Date Time Source
KBOS TAF 2022/11/30 18:46 UTC NOAA

TAF KBOS 301739Z 3018/0124 17008KT P6SM SCT015 OVC035 WS020/17035KT
FM301900 17016G32KT P6SM -RA OVC025
FM302200 18020G35KT 3SM +RA BR OVC010
FM010200 26019G38KT P6SM OVC045

Example: see airport list